Rockyford, South Dakota
Current Conditions -  °F | °C
As of 6:52 AM on Thursday 30 Oct 2014 (Local Time) from KIEN Reporting Station
Clear Clear  
Wind Chill: 34°   Ceiling: Unl
Heat Index: 34°   Visibility: 10mi
Dew Point: 27°   Wind: 3mph
Humidity: 75%   Direction: 270°W
Pressure: 30.25"   Gusts: NA
Location:  43.2863°N, 102.209°W
Report Text: KIEN 301252Z AUTO 27003KT 10SM CLR 01/M03 A3025 RMK AO2 SLP258 T00111028
Loading
Personal Weather Stations






























Interactive Weather Map
Tropical Storm Tracking
New forecast layout! Learn more

10-Day Weather Forecast

Advertisements
Track Severe Weather on mobile